sensor_id;sensor_type;location;lat;lon;timestamp;temperature;humidity
10314;DHT22;5202;49.138;10.090;2022-12-07T00:01:45;2.70;99.90
10314;DHT22;5202;49.138;10.090;2022-12-07T00:04:16;2.70;99.90
10314;DHT22;5202;49.138;10.090;2022-12-07T00:06:47;2.60;99.90
10314;DHT22;5202;49.138;10.090;2022-12-07T00:09:20;2.60;99.90
10314;DHT22;5202;49.138;10.090;2022-12-07T00:11:50;2.60;99.90
10314;DHT22;5202;49.138;10.090;2022-12-07T00:14:19;2.60;99.90
10314;DHT22;5202;49.138;10.090;2022-12-07T00:16:49;2.60;99.90
10314;DHT22;5202;49.138;10.090;2022-12-07T00:19:18;2.60;99.90
10314;DHT22;5202;49.138;10.090;2022-12-07T00:21:47;2.60;99.90
10314;DHT22;5202;49.138;10.090;2022-12-07T00:24:15;2.60;99.90
10314;DHT22;5202;49.138;10.090;2022-12-07T00:26:45;2.50;99.90
10314;DHT22;5202;49.138;10.090;2022-12-07T00:29:15;2.50;99.90
10314;DHT22;5202;49.138;10.090;2022-12-07T00:31:45;2.50;99.90
10314;DHT22;5202;49.138;10.090;2022-12-07T00:34:15;2.60;99.90
10314;DHT22;5202;49.138;10.090;2022-12-07T00:36:45;2.60;99.90
10314;DHT22;5202;49.138;10.090;2022-12-07T00:39:13;2.60;99.90
10314;DHT22;5202;49.138;10.090;2022-12-07T00:41:42;2.60;99.90
10314;DHT22;5202;49.138;10.090;2022-12-07T00:44:11;2.60;99.90
10314;DHT22;5202;49.138;10.090;2022-12-07T00:46:40;2.60;99.90
10314;DHT22;5202;49.138;10.090;2022-12-07T00:49:08;2.60;99.90
10314;DHT22;5202;49.138;10.090;2022-12-07T00:51:36;2.60;99.90
10314;DHT22;5202;49.138;10.090;2022-12-07T00:54:05;2.60;99.90
10314;DHT22;5202;49.138;10.090;2022-12-07T00:56:33;2.60;99.90
10314;DHT22;5202;49.138;10.090;2022-12-07T00:59:03;2.60;99.90
10314;DHT22;5202;49.138;10.090;2022-12-07T01:01:35;2.60;99.90
10314;DHT22;5202;49.138;10.090;2022-12-07T01:04:09;2.60;99.90
10314;DHT22;5202;49.138;10.090;2022-12-07T01:06:39;2.60;99.90
10314;DHT22;5202;49.138;10.090;2022-12-07T01:09:07;2.60;99.90
10314;DHT22;5202;49.138;10.090;2022-12-07T01:11:35;2.60;99.90
10314;DHT22;5202;49.138;10.090;2022-12-07T01:14:03;2.60;99.90
10314;DHT22;5202;49.138;10.090;2022-12-07T01:16:33;2.60;99.90
10314;DHT22;5202;49.138;10.090;2022-12-07T01:19:02;2.60;99.90
10314;DHT22;5202;49.138;10.090;2022-12-07T01:21:33;2.60;99.90
10314;DHT22;5202;49.138;10.090;2022-12-07T01:24:06;2.60;99.90
10314;DHT22;5202;49.138;10.090;2022-12-07T01:26:35;2.60;99.90
10314;DHT22;5202;49.138;10.090;2022-12-07T01:29:04;2.50;99.90
10314;DHT22;5202;49.138;10.090;2022-12-07T01:31:34;2.60;99.90
10314;DHT22;5202;49.138;10.090;2022-12-07T01:34:03;2.50;99.90
10314;DHT22;5202;49.138;10.090;2022-12-07T01:36:32;2.50;99.90
10314;DHT22;5202;49.138;10.090;2022-12-07T01:39:04;2.40;99.90
10314;DHT22;5202;49.138;10.090;2022-12-07T01:41:36;2.40;99.90
10314;DHT22;5202;49.138;10.090;2022-12-07T01:44:14;2.40;99.90
10314;DHT22;5202;49.138;10.090;2022-12-07T01:46:49;2.40;99.90
10314;DHT22;5202;49.138;10.090;2022-12-07T01:49:23;2.30;99.90
10314;DHT22;5202;49.138;10.090;2022-12-07T01:52:00;2.30;99.90
10314;DHT22;5202;49.138;10.090;2022-12-07T01:54:32;2.30;99.90
10314;DHT22;5202;49.138;10.090;2022-12-07T01:57:01;2.20;99.90
10314;DHT22;5202;49.138;10.090;2022-12-07T01:59:30;2.10;99.90
10314;DHT22;5202;49.138;10.090;2022-12-07T02:02:02;2.10;99.90
10314;DHT22;5202;49.138;10.090;2022-12-07T02:04:32;2.10;99.90
10314;DHT22;5202;49.138;10.090;2022-12-07T02:07:00;2.10;99.90
10314;DHT22;5202;49.138;10.090;2022-12-07T02:09:30;2.10;99.90
10314;DHT22;5202;49.138;10.090;2022-12-07T02:11:58;2.00;99.90
10314;DHT22;5202;49.138;10.090;2022-12-07T02:14:26;2.00;99.90
10314;DHT22;5202;49.138;10.090;2022-12-07T02:17:05;2.00;99.90
10314;DHT22;5202;49.138;10.090;2022-12-07T02:23:11;2.00;99.90
10314;DHT22;5202;49.138;10.090;2022-12-07T02:29:26;2.00;99.90
10314;DHT22;5202;49.138;10.090;2022-12-07T02:32:02;2.00;99.90
10314;DHT22;5202;49.138;10.090;2022-12-07T02:34:39;2.00;99.90
10314;DHT22;5202;49.138;10.090;2022-12-07T02:37:19;1.90;99.90
10314;DHT22;5202;49.138;10.090;2022-12-07T02:39:57;1.90;99.90
10314;DHT22;5202;49.138;10.090;2022-12-07T02:42:33;1.90;99.90
10314;DHT22;5202;49.138;10.090;2022-12-07T02:45:07;1.90;99.90
10314;DHT22;5202;49.138;10.090;2022-12-07T02:47:37;1.90;99.90
10314;DHT22;5202;49.138;10.090;2022-12-07T02:50:07;1.80;99.90
10314;DHT22;5202;49.138;10.090;2022-12-07T02:52:36;1.70;99.90
10314;DHT22;5202;49.138;10.090;2022-12-07T02:55:05;1.70;99.90
10314;DHT22;5202;49.138;10.090;2022-12-07T02:57:45;1.60;99.90
10314;DHT22;5202;49.138;10.090;2022-12-07T03:00:22;1.60;99.90
10314;DHT22;5202;49.138;10.090;2022-12-07T03:02:54;1.60;99.90
10314;DHT22;5202;49.138;10.090;2022-12-07T03:06:10;1.50;99.90
10314;DHT22;5202;49.138;10.090;2022-12-07T03:08:50;1.60;99.90
10314;DHT22;5202;49.138;10.090;2022-12-07T03:11:28;1.60;99.90
10314;DHT22;5202;49.138;10.090;2022-12-07T03:14:01;1.60;99.90
10314;DHT22;5202;49.138;10.090;2022-12-07T03:16:35;1.60;99.90
10314;DHT22;5202;49.138;10.090;2022-12-07T03:19:08;1.40;99.90
10314;DHT22;5202;49.138;10.090;2022-12-07T03:21:40;1.40;99.90
10314;DHT22;5202;49.138;10.090;2022-12-07T03:24:14;1.30;99.90
10314;DHT22;5202;49.138;10.090;2022-12-07T03:26:47;1.30;99.90
10314;DHT22;5202;49.138;10.090;2022-12-07T03:29:20;1.40;99.90
10314;DHT22;5202;49.138;10.090;2022-12-07T03:31:57;1.40;99.90
10314;DHT22;5202;49.138;10.090;2022-12-07T03:34:31;1.40;99.90
10314;DHT22;5202;49.138;10.090;2022-12-07T03:37:04;1.50;99.90
10314;DHT22;5202;49.138;10.090;2022-12-07T03:39:39;1.60;99.90
10314;DHT22;5202;49.138;10.090;2022-12-07T03:42:10;1.60;99.90
10314;DHT22;5202;49.138;10.090;2022-12-07T03:44:39;1.60;99.90
10314;DHT22;5202;49.138;10.090;2022-12-07T03:47:13;1.60;99.90
10314;DHT22;5202;49.138;10.090;2022-12-07T03:49:50;1.70;99.90
10314;DHT22;5202;49.138;10.090;2022-12-07T03:52:25;1.70;99.90
10314;DHT22;5202;49.138;10.090;2022-12-07T03:55:03;1.70;99.90
10314;DHT22;5202;49.138;10.090;2022-12-07T03:57:34;1.70;99.90
10314;DHT22;5202;49.138;10.090;2022-12-07T04:00:04;1.70;99.90
10314;DHT22;5202;49.138;10.090;2022-12-07T04:02:42;1.70;99.90
10314;DHT22;5202;49.138;10.090;2022-12-07T04:05:11;1.70;99.90
10314;DHT22;5202;49.138;10.090;2022-12-07T04:07:40;1.70;99.90
10314;DHT22;5202;49.138;10.090;2022-12-07T04:10:09;1.80;99.90
10314;DHT22;5202;49.138;10.090;2022-12-07T04:12:38;1.80;99.90
10314;DHT22;5202;49.138;10.090;2022-12-07T04:15:08;1.90;99.90
10314;DHT22;5202;49.138;10.090;2022-12-07T04:17:36;1.90;99.90
10314;DHT22;5202;49.138;10.090;2022-12-07T04:20:08;1.90;99.90
10314;DHT22;5202;49.138;10.090;2022-12-07T04:22:37;1.80;99.90
10314;DHT22;5202;49.138;10.090;2022-12-07T04:25:06;1.90;99.90
10314;DHT22;5202;49.138;10.090;2022-12-07T04:27:34;1.90;99.90
10314;DHT22;5202;49.138;10.090;2022-12-07T04:30:03;1.80;99.90
10314;DHT22;5202;49.138;10.090;2022-12-07T04:32:32;1.80;99.90
10314;DHT22;5202;49.138;10.090;2022-12-07T04:35:01;1.90;99.90
10314;DHT22;5202;49.138;10.090;2022-12-07T04:37:31;1.90;99.90
10314;DHT22;5202;49.138;10.090;2022-12-07T04:40:00;2.00;99.90
10314;DHT22;5202;49.138;10.090;2022-12-07T04:42:29;2.00;99.90
10314;DHT22;5202;49.138;10.090;2022-12-07T04:44:57;2.00;99.90
10314;DHT22;5202;49.138;10.090;2022-12-07T04:47:25;2.00;99.90
10314;DHT22;5202;49.138;10.090;2022-12-07T04:49:54;2.00;99.90
10314;DHT22;5202;49.138;10.090;2022-12-07T04:52:22;2.00;99.90
10314;DHT22;5202;49.138;10.090;2022-12-07T04:54:52;2.10;99.90
10314;DHT22;5202;49.138;10.090;2022-12-07T04:57:20;2.10;99.90
10314;DHT22;5202;49.138;10.090;2022-12-07T04:59:48;2.20;99.90
10314;DHT22;5202;49.138;10.090;2022-12-07T05:02:17;2.20;99.90
10314;DHT22;5202;49.138;10.090;2022-12-07T05:04:45;2.20;99.90
10314;DHT22;5202;49.138;10.090;2022-12-07T05:07:13;2.20;99.90
10314;DHT22;5202;49.138;10.090;2022-12-07T05:09:42;2.20;99.90
10314;DHT22;5202;49.138;10.090;2022-12-07T05:12:11;2.20;99.90
10314;DHT22;5202;49.138;10.090;2022-12-07T05:14:40;2.20;99.90
10314;DHT22;5202;49.138;10.090;2022-12-07T05:17:08;2.20;99.90
10314;DHT22;5202;49.138;10.090;2022-12-07T05:19:38;2.10;99.90
10314;DHT22;5202;49.138;10.090;2022-12-07T05:22:06;2.10;99.90
10314;DHT22;5202;49.138;10.090;2022-12-07T05:24:34;2.00;99.90
10314;DHT22;5202;49.138;10.090;2022-12-07T05:27:03;2.00;99.90
10314;DHT22;5202;49.138;10.090;2022-12-07T05:29:33;2.00;99.90
10314;DHT22;5202;49.138;10.090;2022-12-07T05:32:01;2.00;99.90
10314;DHT22;5202;49.138;10.090;2022-12-07T05:34:30;2.10;99.90
10314;DHT22;5202;49.138;10.090;2022-12-07T05:37:00;2.10;99.90
10314;DHT22;5202;49.138;10.090;2022-12-07T05:39:29;2.20;99.90
10314;DHT22;5202;49.138;10.090;2022-12-07T05:41:57;2.20;99.90
10314;DHT22;5202;49.138;10.090;2022-12-07T05:44:43;2.20;99.90
10314;DHT22;5202;49.138;10.090;2022-12-07T05:47:14;2.20;99.90
10314;DHT22;5202;49.138;10.090;2022-12-07T05:49:42;2.30;99.90
10314;DHT22;5202;49.138;10.090;2022-12-07T05:52:11;2.30;99.90
10314;DHT22;5202;49.138;10.090;2022-12-07T05:54:39;2.30;99.90
10314;DHT22;5202;49.138;10.090;2022-12-07T05:57:07;2.30;99.90
10314;DHT22;5202;49.138;10.090;2022-12-07T05:59:36;2.30;99.90
10314;DHT22;5202;49.138;10.090;2022-12-07T06:02:06;2.30;99.90
10314;DHT22;5202;49.138;10.090;2022-12-07T06:04:37;2.30;99.90
10314;DHT22;5202;49.138;10.090;2022-12-07T06:07:07;2.30;99.90
10314;DHT22;5202;49.138;10.090;2022-12-07T06:09:36;2.40;99.90
10314;DHT22;5202;49.138;10.090;2022-12-07T06:12:06;2.40;99.90
10314;DHT22;5202;49.138;10.090;2022-12-07T06:15:00;2.40;99.90
10314;DHT22;5202;49.138;10.090;2022-12-07T06:17:29;2.30;99.90
10314;DHT22;5202;49.138;10.090;2022-12-07T06:19:58;2.30;99.90
10314;DHT22;5202;49.138;10.090;2022-12-07T06:22:27;2.40;99.90
10314;DHT22;5202;49.138;10.090;2022-12-07T06:24:55;2.40;99.90
10314;DHT22;5202;49.138;10.090;2022-12-07T06:27:23;2.40;99.90
10314;DHT22;5202;49.138;10.090;2022-12-07T06:29:52;2.30;99.90
10314;DHT22;5202;49.138;10.090;2022-12-07T06:32:20;2.20;99.90
10314;DHT22;5202;49.138;10.090;2022-12-07T06:34:49;2.20;99.90
10314;DHT22;5202;49.138;10.090;2022-12-07T06:37:18;2.20;99.90
10314;DHT22;5202;49.138;10.090;2022-12-07T06:39:46;2.20;99.90
10314;DHT22;5202;49.138;10.090;2022-12-07T06:42:14;2.20;99.90
10314;DHT22;5202;49.138;10.090;2022-12-07T06:44:43;2.20;99.90
10314;DHT22;5202;49.138;10.090;2022-12-07T06:47:11;2.20;99.90
10314;DHT22;5202;49.138;10.090;2022-12-07T06:50:03;2.30;99.90
10314;DHT22;5202;49.138;10.090;2022-12-07T06:52:32;2.20;99.90
10314;DHT22;5202;49.138;10.090;2022-12-07T06:55:01;2.30;99.90
10314;DHT22;5202;49.138;10.090;2022-12-07T06:57:29;2.30;99.90
10314;DHT22;5202;49.138;10.090;2022-12-07T06:59:57;2.40;99.90
10314;DHT22;5202;49.138;10.090;2022-12-07T07:02:26;2.40;99.90
10314;DHT22;5202;49.138;10.090;2022-12-07T07:05:20;2.40;99.90
10314;DHT22;5202;49.138;10.090;2022-12-07T07:07:49;2.30;99.90
10314;DHT22;5202;49.138;10.090;2022-12-07T07:10:38;2.30;99.90
10314;DHT22;5202;49.138;10.090;2022-12-07T07:13:07;2.30;99.90
10314;DHT22;5202;49.138;10.090;2022-12-07T07:15:38;2.30;99.90
10314;DHT22;5202;49.138;10.090;2022-12-07T07:18:06;2.30;99.90
10314;DHT22;5202;49.138;10.090;2022-12-07T07:20:36;2.30;99.90
10314;DHT22;5202;49.138;10.090;2022-12-07T07:23:05;2.30;99.90
10314;DHT22;5202;49.138;10.090;2022-12-07T07:25:34;2.30;99.90
10314;DHT22;5202;49.138;10.090;2022-12-07T07:28:02;2.30;99.90
10314;DHT22;5202;49.138;10.090;2022-12-07T07:30:33;2.30;99.90
10314;DHT22;5202;49.138;10.090;2022-12-07T07:33:03;2.30;99.90
10314;DHT22;5202;49.138;10.090;2022-12-07T07:35:34;2.20;99.90
10314;DHT22;5202;49.138;10.090;2022-12-07T07:38:03;2.20;99.90
10314;DHT22;5202;49.138;10.090;2022-12-07T07:40:32;2.20;99.90
10314;DHT22;5202;49.138;10.090;2022-12-07T07:43:00;2.10;99.90
10314;DHT22;5202;49.138;10.090;2022-12-07T07:45:28;2.10;99.90
10314;DHT22;5202;49.138;10.090;2022-12-07T07:47:57;2.10;99.90
10314;DHT22;5202;49.138;10.090;2022-12-07T07:50:25;2.20;99.90
10314;DHT22;5202;49.138;10.090;2022-12-07T07:52:56;2.20;99.90
10314;DHT22;5202;49.138;10.090;2022-12-07T07:55:25;2.30;99.90
10314;DHT22;5202;49.138;10.090;2022-12-07T07:57:54;2.30;99.90
10314;DHT22;5202;49.138;10.090;2022-12-07T08:00:23;2.30;99.90
10314;DHT22;5202;49.138;10.090;2022-12-07T08:02:51;2.40;99.90
10314;DHT22;5202;49.138;10.090;2022-12-07T08:05:19;2.40;99.90
10314;DHT22;5202;49.138;10.090;2022-12-07T08:07:48;2.40;99.90
10314;DHT22;5202;49.138;10.090;2022-12-07T08:10:17;2.50;99.90
10314;DHT22;5202;49.138;10.090;2022-12-07T08:12:46;2.50;99.90
10314;DHT22;5202;49.138;10.090;2022-12-07T08:15:32;2.50;99.90
10314;DHT22;5202;49.138;10.090;2022-12-07T08:18:00;2.40;99.90
10314;DHT22;5202;49.138;10.090;2022-12-07T08:20:29;2.40;99.90
10314;DHT22;5202;49.138;10.090;2022-12-07T08:22:58;2.40;99.90
10314;DHT22;5202;49.138;10.090;2022-12-07T08:25:28;2.50;99.90
10314;DHT22;5202;49.138;10.090;2022-12-07T08:27:56;2.50;99.90
10314;DHT22;5202;49.138;10.090;2022-12-07T08:30:25;2.50;99.90
10314;DHT22;5202;49.138;10.090;2022-12-07T08:32:53;2.50;99.90
10314;DHT22;5202;49.138;10.090;2022-12-07T08:35:21;2.50;99.90
10314;DHT22;5202;49.138;10.090;2022-12-07T08:37:50;2.50;99.90
10314;DHT22;5202;49.138;10.090;2022-12-07T08:40:18;2.50;99.90
10314;DHT22;5202;49.138;10.090;2022-12-07T08:42:52;2.60;99.90
10314;DHT22;5202;49.138;10.090;2022-12-07T08:45:21;2.60;99.90
10314;DHT22;5202;49.138;10.090;2022-12-07T08:47:57;2.60;99.90
10314;DHT22;5202;49.138;10.090;2022-12-07T08:50:29;2.70;99.90
10314;DHT22;5202;49.138;10.090;2022-12-07T08:53:00;2.70;99.90
10314;DHT22;5202;49.138;10.090;2022-12-07T08:55:29;2.70;99.90
10314;DHT22;5202;49.138;10.090;2022-12-07T08:57:59;2.70;99.90
10314;DHT22;5202;49.138;10.090;2022-12-07T09:00:29;2.80;99.90
10314;DHT22;5202;49.138;10.090;2022-12-07T09:02:58;2.80;99.90
10314;DHT22;5202;49.138;10.090;2022-12-07T09:05:26;2.70;99.90
10314;DHT22;5202;49.138;10.090;2022-12-07T09:07:56;2.70;99.90
10314;DHT22;5202;49.138;10.090;2022-12-07T09:10:27;2.70;99.90
10314;DHT22;5202;49.138;10.090;2022-12-07T09:12:55;2.70;99.90
10314;DHT22;5202;49.138;10.090;2022-12-07T09:15:29;2.80;99.90
10314;DHT22;5202;49.138;10.090;2022-12-07T09:17:58;2.80;99.90
10314;DHT22;5202;49.138;10.090;2022-12-07T09:20:26;2.90;99.90
10314;DHT22;5202;49.138;10.090;2022-12-07T09:22:55;2.90;99.90
10314;DHT22;5202;49.138;10.090;2022-12-07T09:25:23;3.00;99.90
10314;DHT22;5202;49.138;10.090;2022-12-07T09:27:55;3.00;99.90
10314;DHT22;5202;49.138;10.090;2022-12-07T09:30:24;2.90;99.90
10314;DHT22;5202;49.138;10.090;2022-12-07T09:32:55;2.80;99.90
10314;DHT22;5202;49.138;10.090;2022-12-07T09:35:24;2.90;99.90
10314;DHT22;5202;49.138;10.090;2022-12-07T09:37:53;3.00;99.90
10314;DHT22;5202;49.138;10.090;2022-12-07T09:40:22;3.00;99.90
10314;DHT22;5202;49.138;10.090;2022-12-07T09:42:52;3.10;99.90
10314;DHT22;5202;49.138;10.090;2022-12-07T09:45:24;3.20;99.90
10314;DHT22;5202;49.138;10.090;2022-12-07T09:47:57;3.20;99.90
10314;DHT22;5202;49.138;10.090;2022-12-07T09:50:28;3.30;99.90
10314;DHT22;5202;49.138;10.090;2022-12-07T09:53:06;3.30;99.90
10314;DHT22;5202;49.138;10.090;2022-12-07T09:55:36;3.20;99.90
10314;DHT22;5202;49.138;10.090;2022-12-07T09:58:06;3.30;99.90
10314;DHT22;5202;49.138;10.090;2022-12-07T10:00:34;3.20;99.90
10314;DHT22;5202;49.138;10.090;2022-12-07T10:03:04;3.20;99.90
10314;DHT22;5202;49.138;10.090;2022-12-07T10:05:35;3.20;99.90
10314;DHT22;5202;49.138;10.090;2022-12-07T10:08:08;3.10;99.90
10314;DHT22;5202;49.138;10.090;2022-12-07T10:10:38;3.00;99.90
10314;DHT22;5202;49.138;10.090;2022-12-07T10:13:07;2.90;99.90
10314;DHT22;5202;49.138;10.090;2022-12-07T10:15:47;2.80;99.90
10314;DHT22;5202;49.138;10.090;2022-12-07T10:18:25;2.80;99.90
10314;DHT22;5202;49.138;10.090;2022-12-07T10:21:05;2.80;99.90
10314;DHT22;5202;49.138;10.090;2022-12-07T10:23:39;2.80;99.90
10314;DHT22;5202;49.138;10.090;2022-12-07T10:26:29;2.90;99.90
10314;DHT22;5202;49.138;10.090;2022-12-07T10:29:00;2.90;99.90
10314;DHT22;5202;49.138;10.090;2022-12-07T10:31:40;2.90;99.90
10314;DHT22;5202;49.138;10.090;2022-12-07T10:34:21;3.00;99.90
10314;DHT22;5202;49.138;10.090;2022-12-07T10:36:52;2.90;99.90
10314;DHT22;5202;49.138;10.090;2022-12-07T10:39:22;2.90;99.90
10314;DHT22;5202;49.138;10.090;2022-12-07T10:41:55;2.80;99.90
10314;DHT22;5202;49.138;10.090;2022-12-07T10:44:26;2.80;99.90
10314;DHT22;5202;49.138;10.090;2022-12-07T10:50:17;2.70;99.90
10314;DHT22;5202;49.138;10.090;2022-12-07T10:53:10;2.80;99.90
10314;DHT22;5202;49.138;10.090;2022-12-07T10:56:01;2.80;99.90
10314;DHT22;5202;49.138;10.090;2022-12-07T10:58:53;2.80;99.90
10314;DHT22;5202;49.138;10.090;2022-12-07T11:01:32;2.80;99.90
10314;DHT22;5202;49.138;10.090;2022-12-07T11:04:16;2.80;99.90
10314;DHT22;5202;49.138;10.090;2022-12-07T11:07:11;2.90;99.90
10314;DHT22;5202;49.138;10.090;2022-12-07T11:10:08;2.80;99.90
10314;DHT22;5202;49.138;10.090;2022-12-07T11:12:59;2.90;99.90
10314;DHT22;5202;49.138;10.090;2022-12-07T11:15:53;3.00;99.90
10314;DHT22;5202;49.138;10.090;2022-12-07T11:18:31;3.00;99.90
10314;DHT22;5202;49.138;10.090;2022-12-07T11:21:09;3.10;99.90
10314;DHT22;5202;49.138;10.090;2022-12-07T11:23:49;3.10;99.90
10314;DHT22;5202;49.138;10.090;2022-12-07T11:26:32;3.10;99.90
10314;DHT22;5202;49.138;10.090;2022-12-07T11:29:21;3.20;99.90
10314;DHT22;5202;49.138;10.090;2022-12-07T11:32:04;3.10;99.90
10314;DHT22;5202;49.138;10.090;2022-12-07T11:34:42;3.10;99.90
10314;DHT22;5202;49.138;10.090;2022-12-07T11:37:20;3.10;99.90
10314;DHT22;5202;49.138;10.090;2022-12-07T11:39:55;3.10;99.90
10314;DHT22;5202;49.138;10.090;2022-12-07T11:42:33;3.10;99.90
10314;DHT22;5202;49.138;10.090;2022-12-07T11:45:14;3.20;99.90
10314;DHT22;5202;49.138;10.090;2022-12-07T11:47:47;3.20;99.90
10314;DHT22;5202;49.138;10.090;2022-12-07T11:50:26;3.10;99.90
10314;DHT22;5202;49.138;10.090;2022-12-07T11:52:58;3.10;99.90
10314;DHT22;5202;49.138;10.090;2022-12-07T11:55:40;3.10;99.90
10314;DHT22;5202;49.138;10.090;2022-12-07T11:58:33;3.10;99.90
10314;DHT22;5202;49.138;10.090;2022-12-07T12:01:15;3.10;99.90
10314;DHT22;5202;49.138;10.090;2022-12-07T12:03:52;3.10;99.90
10314;DHT22;5202;49.138;10.090;2022-12-07T12:06:23;3.20;99.90
10314;DHT22;5202;49.138;10.090;2022-12-07T12:08:55;3.10;99.90
10314;DHT22;5202;49.138;10.090;2022-12-07T12:12:06;3.10;99.90
10314;DHT22;5202;49.138;10.090;2022-12-07T12:15:23;3.20;99.90
10314;DHT22;5202;49.138;10.090;2022-12-07T12:18:13;3.10;99.90
10314;DHT22;5202;49.138;10.090;2022-12-07T12:20:50;3.00;99.90
10314;DHT22;5202;49.138;10.090;2022-12-07T12:23:22;3.00;99.90
10314;DHT22;5202;49.138;10.090;2022-12-07T12:26:05;3.00;99.90
10314;DHT22;5202;49.138;10.090;2022-12-07T12:28:40;3.00;99.90
10314;DHT22;5202;49.138;10.090;2022-12-07T12:31:28;3.00;99.90
10314;DHT22;5202;49.138;10.090;2022-12-07T12:34:02;3.00;99.90
10314;DHT22;5202;49.138;10.090;2022-12-07T12:36:45;3.10;99.90
10314;DHT22;5202;49.138;10.090;2022-12-07T12:39:15;3.10;99.90
10314;DHT22;5202;49.138;10.090;2022-12-07T12:42:13;3.10;99.90
10314;DHT22;5202;49.138;10.090;2022-12-07T12:45:17;3.20;99.90
10314;DHT22;5202;49.138;10.090;2022-12-07T12:48:09;3.20;99.90
10314;DHT22;5202;49.138;10.090;2022-12-07T12:54:04;3.20;99.90
10314;DHT22;5202;49.138;10.090;2022-12-07T12:56:39;3.10;99.90
10314;DHT22;5202;49.138;10.090;2022-12-07T12:59:26;3.10;99.90
10314;DHT22;5202;49.138;10.090;2022-12-07T13:02:09;3.10;99.90
10314;DHT22;5202;49.138;10.090;2022-12-07T13:04:53;3.20;99.90
10314;DHT22;5202;49.138;10.090;2022-12-07T13:07:53;3.30;99.90
10314;DHT22;5202;49.138;10.090;2022-12-07T13:10:37;3.30;99.90
10314;DHT22;5202;49.138;10.090;2022-12-07T13:16:37;3.20;99.90
10314;DHT22;5202;49.138;10.090;2022-12-07T13:22:43;3.10;99.90
10314;DHT22;5202;49.138;10.090;2022-12-07T13:25:21;3.10;99.90
10314;DHT22;5202;49.138;10.090;2022-12-07T13:28:00;3.20;99.90
10314;DHT22;5202;49.138;10.090;2022-12-07T13:30:30;3.20;99.90
10314;DHT22;5202;49.138;10.090;2022-12-07T13:32:59;3.20;99.90
10314;DHT22;5202;49.138;10.090;2022-12-07T13:35:32;3.10;99.90
10314;DHT22;5202;49.138;10.090;2022-12-07T13:38:22;3.10;99.90
10314;DHT22;5202;49.138;10.090;2022-12-07T13:41:12;3.10;99.90
10314;DHT22;5202;49.138;10.090;2022-12-07T13:43:55;3.10;99.90
10314;DHT22;5202;49.138;10.090;2022-12-07T13:46:40;3.20;99.90
10314;DHT22;5202;49.138;10.090;2022-12-07T13:49:20;3.20;99.90
10314;DHT22;5202;49.138;10.090;2022-12-07T13:51:50;3.20;99.90
10314;DHT22;5202;49.138;10.090;2022-12-07T13:54:21;3.30;99.90
10314;DHT22;5202;49.138;10.090;2022-12-07T13:56:51;3.30;99.90
10314;DHT22;5202;49.138;10.090;2022-12-07T13:59:21;3.30;99.90
10314;DHT22;5202;49.138;10.090;2022-12-07T14:01:52;3.30;99.90
10314;DHT22;5202;49.138;10.090;2022-12-07T14:04:33;3.30;99.90
10314;DHT22;5202;49.138;10.090;2022-12-07T14:07:21;3.30;99.90
10314;DHT22;5202;49.138;10.090;2022-12-07T14:09:58;3.20;99.90
10314;DHT22;5202;49.138;10.090;2022-12-07T14:12:28;3.20;99.90
10314;DHT22;5202;49.138;10.090;2022-12-07T14:15:02;3.20;99.90
10314;DHT22;5202;49.138;10.090;2022-12-07T14:17:31;3.30;99.90
10314;DHT22;5202;49.138;10.090;2022-12-07T14:20:00;3.20;99.90
10314;DHT22;5202;49.138;10.090;2022-12-07T14:22:33;3.20;99.90
10314;DHT22;5202;49.138;10.090;2022-12-07T14:25:24;3.20;99.90
10314;DHT22;5202;49.138;10.090;2022-12-07T14:27:55;3.20;99.90
10314;DHT22;5202;49.138;10.090;2022-12-07T14:30:28;3.30;99.90
10314;DHT22;5202;49.138;10.090;2022-12-07T14:33:00;3.30;99.90
10314;DHT22;5202;49.138;10.090;2022-12-07T14:35:31;3.30;99.90
10314;DHT22;5202;49.138;10.090;2022-12-07T14:37:59;3.30;99.90
10314;DHT22;5202;49.138;10.090;2022-12-07T14:40:29;3.30;99.90
10314;DHT22;5202;49.138;10.090;2022-12-07T14:43:01;3.30;99.90
10314;DHT22;5202;49.138;10.090;2022-12-07T14:45:31;3.40;99.90
10314;DHT22;5202;49.138;10.090;2022-12-07T14:47:59;3.40;99.90
10314;DHT22;5202;49.138;10.090;2022-12-07T14:50:50;3.40;99.90
10314;DHT22;5202;49.138;10.090;2022-12-07T14:53:43;3.40;99.90
10314;DHT22;5202;49.138;10.090;2022-12-07T14:56:20;3.40;99.90
10314;DHT22;5202;49.138;10.090;2022-12-07T14:58:48;3.40;99.90
10314;DHT22;5202;49.138;10.090;2022-12-07T15:01:17;3.30;99.90
10314;DHT22;5202;49.138;10.090;2022-12-07T15:03:53;3.30;99.90
10314;DHT22;5202;49.138;10.090;2022-12-07T15:06:21;3.40;99.90
10314;DHT22;5202;49.138;10.090;2022-12-07T15:08:50;3.40;99.90
10314;DHT22;5202;49.138;10.090;2022-12-07T15:11:20;3.40;99.90
10314;DHT22;5202;49.138;10.090;2022-12-07T15:13:48;3.40;99.90
10314;DHT22;5202;49.138;10.090;2022-12-07T15:16:35;3.30;99.90
10314;DHT22;5202;49.138;10.090;2022-12-07T15:19:24;3.30;99.90
10314;DHT22;5202;49.138;10.090;2022-12-07T15:21:56;3.40;99.90
10314;DHT22;5202;49.138;10.090;2022-12-07T15:24:26;3.40;99.90
10314;DHT22;5202;49.138;10.090;2022-12-07T15:26:56;3.40;99.90
10314;DHT22;5202;49.138;10.090;2022-12-07T15:29:25;3.40;99.90
10314;DHT22;5202;49.138;10.090;2022-12-07T15:31:53;3.40;99.90
10314;DHT22;5202;49.138;10.090;2022-12-07T15:34:24;3.40;99.90
10314;DHT22;5202;49.138;10.090;2022-12-07T15:37:02;3.40;99.90
10314;DHT22;5202;49.138;10.090;2022-12-07T15:39:31;3.40;99.90
10314;DHT22;5202;49.138;10.090;2022-12-07T15:42:01;3.40;99.90
10314;DHT22;5202;49.138;10.090;2022-12-07T15:44:53;3.30;99.90
10314;DHT22;5202;49.138;10.090;2022-12-07T15:47:36;3.20;99.90
10314;DHT22;5202;49.138;10.090;2022-12-07T15:50:25;3.20;99.90
10314;DHT22;5202;49.138;10.090;2022-12-07T15:52:57;3.20;99.90
10314;DHT22;5202;49.138;10.090;2022-12-07T15:55:25;3.20;99.90
10314;DHT22;5202;49.138;10.090;2022-12-07T15:57:55;3.20;99.90
10314;DHT22;5202;49.138;10.090;2022-12-07T16:00:23;3.20;99.90
10314;DHT22;5202;49.138;10.090;2022-12-07T16:02:52;3.20;99.90
10314;DHT22;5202;49.138;10.090;2022-12-07T16:05:20;3.30;99.90
10314;DHT22;5202;49.138;10.090;2022-12-07T16:07:49;3.30;99.90
10314;DHT22;5202;49.138;10.090;2022-12-07T16:10:17;3.40;99.90
10314;DHT22;5202;49.138;10.090;2022-12-07T16:12:45;3.40;99.90
10314;DHT22;5202;49.138;10.090;2022-12-07T16:15:15;3.40;99.90
10314;DHT22;5202;49.138;10.090;2022-12-07T16:17:50;3.40;99.90
10314;DHT22;5202;49.138;10.090;2022-12-07T16:20:18;3.30;99.90
10314;DHT22;5202;49.138;10.090;2022-12-07T16:22:47;3.30;99.90
10314;DHT22;5202;49.138;10.090;2022-12-07T16:25:15;3.30;99.90
10314;DHT22;5202;49.138;10.090;2022-12-07T16:27:43;3.20;99.90
10314;DHT22;5202;49.138;10.090;2022-12-07T16:30:13;3.30;99.90
10314;DHT22;5202;49.138;10.090;2022-12-07T16:32:43;3.30;99.90
10314;DHT22;5202;49.138;10.090;2022-12-07T16:35:12;3.30;99.90
10314;DHT22;5202;49.138;10.090;2022-12-07T16:37:42;3.30;99.90
10314;DHT22;5202;49.138;10.090;2022-12-07T16:40:11;3.30;99.90
10314;DHT22;5202;49.138;10.090;2022-12-07T16:42:40;3.20;99.90
10314;DHT22;5202;49.138;10.090;2022-12-07T16:45:08;3.30;99.90